Time;durP1;ratioP1;P1;durP2;ratioP2;P2;SDS_P1;SDS_P2;PMS_P1;PMS_P2;Temp;Humidity;BMP_temperature;BMP_pressure;BME280_temperature;BME280_humidity;BME280_pressure;Samples;Min_cycle;Max_cycle;Signal;HPM_P1;HPM_P2
2022/08/18 05:02:10;;;;;;;9.75;6.90;;;19.60;99.90;;;;;;5624244;23;20047;-75
2022/08/18 05:04:40;;;;;;;10.20;6.45;;;19.60;99.90;;;;;;4949146;29;20290;-74
2022/08/18 05:07:07;;;;;;;12.18;6.28;;;19.70;99.90;;;;;;4966558;29;20053;-75
2022/08/18 05:09:34;;;;;;;7.10;4.95;;;19.80;99.90;;;;;;4966414;29;20023;-75
2022/08/18 05:12:05;;;;;;;8.65;5.80;;;19.90;99.90;;;;;;4966812;29;20055;-74
2022/08/18 05:14:31;;;;;;;7.20;5.40;;;20.00;99.90;;;;;;4966511;29;20035;-75
2022/08/18 05:17:02;;;;;;;6.50;5.10;;;20.10;99.90;;;;;;4967016;29;20031;-74
2022/08/18 05:19:29;;;;;;;7.00;5.50;;;20.30;99.90;;;;;;4966221;29;20159;-75
2022/08/18 05:21:56;;;;;;;8.43;5.88;;;20.40;99.90;;;;;;4966937;29;20219;-75
2022/08/18 05:24:24;;;;;;;7.00;5.50;;;20.50;99.90;;;;;;4966030;29;20082;-75
2022/08/18 05:26:51;;;;;;;7.88;5.50;;;20.60;99.90;;;;;;4966387;29;20035;-75
2022/08/18 05:29:20;;;;;;;8.10;5.47;;;20.70;99.90;;;;;;4949423;29;20027;-75
2022/08/18 05:31:51;;;;;;;7.82;5.50;;;20.70;99.90;;;;;;4967107;29;20343;-74
2022/08/18 05:34:20;;;;;;;7.60;5.22;;;20.80;99.90;;;;;;4952565;29;20043;-74
2022/08/18 05:36:52;;;;;;;8.18;5.68;;;20.80;99.90;;;;;;4971546;29;20213;-73
2022/08/18 05:39:18;;;;;;;6.93;5.00;;;20.80;99.90;;;;;;4971804;29;20031;-74
2022/08/18 05:41:44;;;;;;;7.53;5.05;;;20.80;99.90;;;;;;4970227;29;20027;-74
2022/08/18 05:44:14;;;;;;;8.15;5.88;;;20.80;99.90;;;;;;4949335;29;20023;-74
2022/08/18 05:47:15;;;;;;;6.90;5.13;;;21.00;99.90;;;;;;4966015;29;20337;-74
2022/08/18 05:49:44;;;;;;;14.13;5.82;;;21.00;99.90;;;;;;4948807;29;20035;-75
2022/08/18 05:52:27;;;;;;;7.53;5.32;;;21.20;99.90;;;;;;4949151;29;20042;-74
2022/08/18 05:57:55;;;;;;;8.50;6.43;;;21.30;99.90;;;;;;4965646;29;20025;-73
2022/08/18 06:00:22;;;;;;;10.23;6.70;;;21.20;99.90;;;;;;4965499;29;20178;-73
2022/08/18 06:02:54;;;;;;;8.63;6.10;;;21.10;99.90;;;;;;4929341;29;20322;-74
2022/08/18 06:05:43;;;;;;;11.05;7.20;;;21.10;99.90;;;;;;4923543;29;20233;-74
2022/08/18 06:08:15;;;;;;;9.85;6.88;;;21.20;99.90;;;;;;4923200;29;20407;-74
2022/08/18 06:10:46;;;;;;;9.10;6.78;;;21.30;99.90;;;;;;4908433;29;20036;-74
2022/08/18 06:13:12;;;;;;;11.52;8.18;;;21.30;99.90;;;;;;4923230;29;20047;-75
2022/08/18 06:15:53;;;;;;;12.10;8.02;;;21.30;99.90;;;;;;4922530;29;20100;-75
2022/08/18 06:18:56;;;;;;;9.85;6.90;;;21.40;99.90;;;;;;4927079;29;20027;-74
2022/08/18 06:21:49;;;;;;;9.73;7.03;;;21.70;99.90;;;;;;4925379;29;20039;-76
2022/08/18 06:24:42;;;;;;;8.65;6.88;;;21.90;99.90;;;;;;4935400;29;20035;-75
2022/08/18 06:27:45;;;;;;;11.23;7.80;;;21.80;99.90;;;;;;4932947;29;20047;-78
2022/08/18 06:30:31;;;;;;;12.18;8.50;;;21.90;99.90;;;;;;4928678;29;20028;-75
2022/08/18 06:33:17;;;;;;;13.15;8.23;;;21.90;99.90;;;;;;4946303;29;20028;-74
2022/08/18 06:35:53;;;;;;;13.73;8.68;;;21.80;99.90;;;;;;4923342;29;20368;-75
2022/08/18 06:38:51;;;;;;;12.02;7.88;;;21.80;99.90;;;;;;4926438;29;20063;-74
2022/08/18 06:41:31;;;;;;;9.13;7.32;;;21.90;99.90;;;;;;4891718;29;20032;-73
2022/08/18 06:44:00;;;;;;;10.00;6.85;;;22.10;99.90;;;;;;4925449;29;20516;-73
2022/08/18 06:46:45;;;;;;;9.82;7.18;;;22.30;99.90;;;;;;4929081;29;20042;-73
2022/08/18 06:49:17;;;;;;;8.48;7.15;;;22.40;99.90;;;;;;4944267;29;20235;-72
2022/08/18 06:51:43;;;;;;;10.63;7.65;;;22.60;99.90;;;;;;4937693;29;20042;-72
2022/08/18 06:54:20;;;;;;;10.65;7.05;;;22.70;99.90;;;;;;4944588;29;20039;-72
2022/08/18 06:56:52;;;;;;;8.48;6.70;;;22.80;99.30;;;;;;4943273;29;20124;-73
2022/08/18 06:59:32;;;;;;;9.80;6.90;;;22.90;98.90;;;;;;4912413;29;20100;-76
2022/08/18 07:02:01;;;;;;;8.70;6.78;;;23.00;98.20;;;;;;4930548;29;20147;-72
2022/08/18 07:04:29;;;;;;;;;;;23.10;97.70;;;;;;4927163;29;20102;-73
2022/08/18 07:06:55;;;;;;;13.40;6.18;;;23.10;96.80;;;;;;4944031;29;19973;-73
2022/08/18 07:09:24;;;;;;;11.88;7.43;;;23.30;96.10;;;;;;4944694;29;20046;-72
2022/08/18 07:12:01;;;;;;;;;;;23.40;95.70;;;;;;4927934;29;20411;-73
2022/08/18 07:14:27;;;;;;;9.68;7.32;;;23.60;95.00;;;;;;4943781;29;19914;-73
2022/08/18 07:17:08;;;;;;;10.00;7.05;;;23.60;94.90;;;;;;4953118;29;20185;-73
2022/08/18 07:19:33;;;;;;;8.57;6.82;;;23.60;95.10;;;;;;4962893;29;20031;-73
2022/08/18 07:22:12;;;;;;;9.60;7.03;;;23.60;95.00;;;;;;4963343;29;20038;-73
2022/08/18 07:24:47;;;;;;;10.15;6.75;;;23.70;95.10;;;;;;4962883;29;20053;-73
2022/08/18 07:27:16;;;;;;;8.68;6.88;;;23.60;95.00;;;;;;4963450;29;20059;-73
2022/08/18 07:29:59;;;;;;;9.90;7.22;;;23.70;94.70;;;;;;4962758;29;20062;-74
2022/08/18 07:32:33;;;;;;;9.30;6.80;;;23.80;94.90;;;;;;4962889;29;20082;-77
2022/08/18 07:35:02;;;;;;;12.23;7.35;;;23.80;94.30;;;;;;4963190;29;20257;-75
2022/08/18 07:37:53;;;;;;;8.70;7.07;;;23.90;94.10;;;;;;4945515;29;20044;-75
2022/08/18 07:40:45;;;;;;;12.13;7.72;;;23.80;94.20;;;;;;4926925;29;20047;-74
2022/08/18 07:43:18;;;;;;;11.68;7.78;;;23.70;94.00;;;;;;4943210;29;20118;-77
2022/08/18 07:45:46;;;;;;;10.27;7.05;;;23.50;93.90;;;;;;4925821;29;20035;-75
2022/08/18 07:48:19;;;;;;;9.70;6.53;;;23.40;94.40;;;;;;4943665;29;20229;-75
2022/08/18 07:51:00;;;;;;;9.60;7.28;;;23.20;94.10;;;;;;4942954;29;20027;-75
2022/08/18 07:53:49;;;;;;;10.30;6.85;;;23.20;94.70;;;;;;4921092;29;20031;-78
2022/08/18 07:56:22;;;;;;;9.10;6.00;;;23.10;94.90;;;;;;4926772;29;20016;-75
2022/08/18 07:59:07;;;;;;;7.00;6.03;;;23.00;94.70;;;;;;4942940;29;20028;-75
2022/08/18 08:01:55;;;;;;;10.18;6.88;;;23.10;95.20;;;;;;4942846;29;20035;-74
2022/08/18 08:04:27;;;;;;;9.00;6.65;;;23.10;95.40;;;;;;4943199;29;20035;-75
2022/08/18 08:07:03;;;;;;;11.25;6.75;;;23.00;95.80;;;;;;4943452;29;20027;-75
2022/08/18 08:10:05;;;;;;;11.90;7.00;;;22.90;96.30;;;;;;4949102;29;20027;-74
2022/08/18 08:12:53;;;;;;;9.25;6.18;;;22.80;96.30;;;;;;4942258;29;20039;-75
2022/08/18 08:15:24;;;;;;;8.82;6.72;;;22.70;96.80;;;;;;4945719;29;20414;-75
2022/08/18 08:18:00;;;;;;;10.10;6.10;;;22.70;97.40;;;;;;4946788;29;20043;-75
2022/08/18 08:20:42;;;;;;;8.40;6.35;;;22.70;97.30;;;;;;4947427;29;20031;-75
2022/08/18 08:23:21;;;;;;;8.00;6.53;;;22.70;97.70;;;;;;4930230;29;20110;-75
2022/08/18 08:25:50;;;;;;;7.68;5.95;;;22.70;98.10;;;;;;4930736;29;20059;-74
2022/08/18 08:28:25;;;;;;;8.82;6.53;;;22.80;98.00;;;;;;4947378;29;20217;-76
2022/08/18 08:31:31;;;;;;;14.82;10.98;;;23.00;98.50;;;;;;4943032;29;20062;-73
2022/08/18 08:34:10;;;;;;;9.63;6.45;;;23.00;98.30;;;;;;4947588;29;20040;-73
2022/08/18 08:36:43;;;;;;;9.95;7.00;;;23.30;97.80;;;;;;4958038;29;20019;-75
2022/08/18 08:39:14;;;;;;;14.35;7.78;;;23.40;97.20;;;;;;4947470;29;20027;-76
2022/08/18 08:41:44;;;;;;;12.57;7.60;;;23.70;96.70;;;;;;4959610;29;20023;-75
2022/08/18 08:44:25;;;;;;;10.57;7.93;;;23.90;96.00;;;;;;4961120;29;20036;-76
2022/08/18 08:46:58;;;;;;;11.02;7.10;;;24.20;95.10;;;;;;4944564;29;20364;-76
2022/08/18 08:49:45;;;;;;;10.68;7.25;;;24.40;94.60;;;;;;4946187;29;20090;-75
2022/08/18 08:52:21;;;;;;;8.25;6.10;;;24.60;93.50;;;;;;4961478;29;20026;-74
2022/08/18 08:55:02;;;;;;;10.02;7.68;;;25.00;92.00;;;;;;4951081;29;20031;-74
2022/08/18 08:57:38;;;;;;;12.93;7.20;;;25.10;91.80;;;;;;4946583;29;20079;-77
2022/08/18 09:00:08;;;;;;;8.50;7.32;;;25.20;91.60;;;;;;4946869;29;20031;-74
2022/08/18 09:02:57;;;;;;;8.50;6.05;;;25.30;90.60;;;;;;4945891;29;20052;-73
2022/08/18 09:05:29;;;;;;;10.18;6.22;;;25.40;90.10;;;;;;4946609;29;20035;-73
2022/08/18 09:08:22;;;;;;;7.50;5.40;;;25.50;89.00;;;;;;4946020;29;20043;-75
2022/08/18 09:11:05;;;;;;;6.90;5.43;;;25.40;86.70;;;;;;4945956;29;20036;-77
2022/08/18 09:14:11;;;;;;;6.47;5.05;;;25.30;87.20;;;;;;4947194;29;20103;-74
2022/08/18 09:16:40;;;;;;;6.68;4.32;;;25.40;86.70;;;;;;4946018;29;20035;-74
2022/08/18 09:19:28;;;;;;;5.80;4.30;;;25.80;85.90;;;;;;4929310;29;20015;-74
2022/08/18 09:22:06;;;;;;;7.47;4.63;;;26.00;85.60;;;;;;4945923;29;20035;-74
2022/08/18 09:24:44;;;;;;;6.20;4.80;;;26.00;85.20;;;;;;4945082;29;20035;-74
2022/08/18 09:27:36;;;;;;;7.00;4.70;;;26.00;85.20;;;;;;4945985;29;20103;-76
2022/08/18 09:30:06;;;;;;;7.22;5.18;;;25.80;85.80;;;;;;4927035;29;20046;-75
2022/08/18 09:32:55;;;;;;;6.60;5.70;;;25.70;85.90;;;;;;4941393;29;20288;-76
2022/08/18 09:35:41;;;;;;;8.40;5.13;;;25.70;86.70;;;;;;4945960;29;20406;-75
2022/08/18 09:41:30;;;;;;;11.15;5.85;;;25.90;86.20;;;;;;4945421;29;20058;-76
2022/08/18 09:44:09;;;;;;;8.85;5.38;;;25.80;86.40;;;;;;4945634;29;20042;-75
2022/08/18 09:47:01;;;;;;;6.55;5.32;;;25.90;86.90;;;;;;4945133;29;20031;-75
2022/08/18 09:49:27;;;;;;;7.50;5.70;;;26.40;85.70;;;;;;4941587;29;20040;-74
2022/08/18 09:52:17;;;;;;;12.85;6.32;;;26.50;84.50;;;;;;4945310;29;20039;-76
2022/08/18 09:55:01;;;;;;;10.27;6.30;;;26.80;83.80;;;;;;4943598;29;20225;-75
2022/08/18 09:57:29;;;;;;;8.48;5.57;;;27.00;82.90;;;;;;4945618;29;20230;-77
2022/08/18 10:00:14;;;;;;;6.57;5.85;;;27.10;82.90;;;;;;4933245;29;20020;-76
2022/08/18 10:02:40;;;;;;;7.90;5.90;;;27.20;82.20;;;;;;4925780;29;20073;-75
2022/08/18 10:05:18;;;;;;;7.32;5.88;;;27.30;81.70;;;;;;4934030;29;20036;-74
2022/08/18 10:08:13;;;;;;;7.95;6.20;;;27.50;81.50;;;;;;4945266;29;20035;-74
2022/08/18 10:11:17;;;;;;;8.90;5.78;;;27.50;80.80;;;;;;4893410;29;20311;-75
2022/08/18 10:14:07;;;;;;;5.63;4.75;;;27.70;81.10;;;;;;4945332;29;20036;-75
2022/08/18 10:16:35;;;;;;;7.90;5.38;;;27.70;79.90;;;;;;4943655;29;20035;-74
2022/08/18 10:19:12;;;;;;;;;;;27.50;80.60;;;;;;4925586;29;20063;-75
2022/08/18 10:22:02;;;;;;;7.60;6.20;;;27.50;81.00;;;;;;4925715;29;20185;-76
2022/08/18 10:24:36;;;;;;;7.88;6.18;;;27.40;80.50;;;;;;4925356;29;20221;-74
2022/08/18 10:27:28;;;;;;;7.32;5.72;;;27.60;80.20;;;;;;4944006;29;20062;-74
2022/08/18 10:29:55;;;;;;;7.05;5.80;;;27.60;80.30;;;;;;4908592;29;20217;-73
2022/08/18 10:32:34;;;;;;;8.70;6.10;;;27.80;79.90;;;;;;4949462;29;20055;-74
2022/08/18 10:35:01;;;;;;;6.15;5.55;;;28.00;78.70;;;;;;4945161;29;20047;-74
2022/08/18 10:37:43;;;;;;;9.93;6.47;;;27.90;78.80;;;;;;4944519;29;20190;-74
2022/08/18 10:40:08;;;;;;;5.93;5.32;;;27.70;79.00;;;;;;4945009;29;20204;-74
2022/08/18 10:42:42;;;;;;;6.70;5.60;;;27.70;79.80;;;;;;4948071;29;20036;-73
2022/08/18 10:45:10;;;;;;;6.28;5.20;;;27.90;78.60;;;;;;4950970;29;20032;-73
2022/08/18 10:47:37;;;;;;;6.47;5.78;;;28.20;77.90;;;;;;4946404;29;20131;-77
2022/08/18 10:50:08;;;;;;;6.50;5.90;;;28.00;77.80;;;;;;4947899;29;20353;-72
2022/08/18 10:52:42;;;;;;;6.82;5.63;;;28.00;77.60;;;;;;4949779;29;20082;-75
2022/08/18 10:55:52;;;;;;;7.32;5.82;;;28.20;77.00;;;;;;4944291;29;20039;-73
2022/08/18 10:58:30;;;;;;;6.38;5.68;;;28.60;76.10;;;;;;4944035;29;20027;-75
2022/08/18 11:01:17;;;;;;;7.32;5.40;;;29.10;75.00;;;;;;4925088;29;20024;-75
2022/08/18 11:04:08;;;;;;;6.40;5.28;;;29.40;74.10;;;;;;4920681;29;20048;-74
2022/08/18 11:06:41;;;;;;;7.07;4.97;;;29.50;74.20;;;;;;4907395;29;20064;-74
2022/08/18 11:09:08;;;;;;;8.27;5.63;;;29.40;73.70;;;;;;4906401;29;20032;-75
2022/08/18 11:11:42;;;;;;;7.00;5.30;;;29.30;73.00;;;;;;4905975;29;20036;-74
2022/08/18 11:14:27;;;;;;;6.47;5.38;;;29.30;73.00;;;;;;4906259;29;20035;-74
2022/08/18 11:17:10;;;;;;;7.43;5.70;;;29.40;72.90;;;;;;4905771;29;20032;-74
2022/08/18 11:19:41;;;;;;;7.35;5.88;;;29.80;72.30;;;;;;4912304;29;20035;-72
2022/08/18 11:22:24;;;;;;;8.77;6.22;;;30.00;71.60;;;;;;4920370;29;20028;-72
2022/08/18 11:24:51;;;;;;;7.75;5.60;;;30.30;70.10;;;;;;4930093;29;20153;-72
2022/08/18 11:27:36;;;;;;;6.00;5.40;;;30.80;69.80;;;;;;4909785;29;20080;-73
2022/08/18 11:30:05;;;;;;;7.63;6.38;;;31.30;68.60;;;;;;4914079;29;20048;-74
2022/08/18 11:32:31;;;;;;;7.22;5.78;;;31.50;67.50;;;;;;4921563;29;20031;-73
2022/08/18 11:35:09;;;;;;;6.40;5.72;;;31.20;67.50;;;;;;4909560;29;20036;-74
2022/08/18 11:37:44;;;;;;;7.70;5.70;;;30.80;67.80;;;;;;4909349;29;20025;-74
2022/08/18 11:40:35;;;;;;;7.25;6.07;;;30.70;68.40;;;;;;4912999;29;20044;-73
2022/08/18 11:43:10;;;;;;;6.93;5.65;;;30.40;68.80;;;;;;4917249;29;20270;-74
2022/08/18 11:46:03;;;;;;;7.68;6.22;;;30.00;70.00;;;;;;4918988;29;20060;-74
2022/08/18 11:48:41;;;;;;;7.75;6.93;;;29.60;71.10;;;;;;4914015;29;20032;-74
2022/08/18 11:51:16;;;;;;;;;;;29.40;71.10;;;;;;4924148;29;20187;-75
2022/08/18 11:53:48;;;;;;;9.70;6.65;;;29.50;70.40;;;;;;4910436;29;19907;-74
2022/08/18 11:56:20;;;;;;;8.07;6.13;;;29.70;70.30;;;;;;4909009;29;20033;-75
2022/08/18 11:58:56;;;;;;;8.40;6.70;;;30.90;68.80;;;;;;4926294;29;20354;-74
2022/08/18 12:01:39;;;;;;;7.28;6.57;;;31.40;66.80;;;;;;4921187;29;20292;-73
2022/08/18 12:04:12;;;;;;;20.30;6.60;;;30.90;67.20;;;;;;4908645;29;20059;-80
2022/08/18 12:06:47;;;;;;;9.70;6.30;;;31.50;67.00;;;;;;4924981;29;20033;-75
2022/08/18 12:09:25;;;;;;;6.28;5.60;;;32.40;64.20;;;;;;4916632;29;20043;-73
2022/08/18 12:12:01;;;;;;;9.10;5.95;;;33.00;63.30;;;;;;4904765;29;20364;-75
2022/08/18 12:14:32;;;;;;;6.78;5.70;;;32.70;62.80;;;;;;4905599;29;20036;-75
2022/08/18 12:16:58;;;;;;;5.82;5.28;;;32.80;62.80;;;;;;4905350;29;20044;-75
2022/08/18 12:19:26;;;;;;;5.55;5.05;;;33.60;61.70;;;;;;4904225;29;20033;-74
2022/08/18 12:21:59;;;;;;;5.57;5.03;;;33.70;60.70;;;;;;4904713;29;20077;-75
2022/08/18 12:24:30;;;;;;;6.55;5.05;;;33.20;61.10;;;;;;4910948;29;20038;-74
2022/08/18 12:26:57;;;;;;;6.68;5.70;;;33.50;61.10;;;;;;4923754;29;20039;-78
2022/08/18 12:29:25;;;;;;;6.53;5.23;;;34.30;60.60;;;;;;4924349;29;20062;-75
2022/08/18 12:31:52;;;;;;;7.50;4.75;;;34.80;59.90;;;;;;4929007;29;20076;-74
2022/08/18 12:34:23;;;;;;;4.93;4.43;;;36.20;58.00;;;;;;4924572;29;20032;-75
2022/08/18 12:36:51;;;;;;;6.43;4.38;;;36.90;56.30;;;;;;4924107;29;20272;-73
2022/08/18 12:39:17;;;;;;;5.13;4.40;;;37.50;55.50;;;;;;4924290;29;20028;-73
2022/08/18 12:41:43;;;;;;;5.90;4.03;;;37.70;54.80;;;;;;4923946;29;20222;-75
2022/08/18 12:44:09;;;;;;;5.20;4.70;;;38.00;54.60;;;;;;4924401;29;20036;-74
2022/08/18 12:46:35;;;;;;;4.90;4.05;;;38.70;53.50;;;;;;4924404;29;20253;-76
2022/08/18 12:49:03;;;;;;;7.15;4.20;;;39.30;52.90;;;;;;4918737;29;20124;-74
2022/08/18 12:51:29;;;;;;;6.20;4.47;;;38.50;52.50;;;;;;4916913;29;20028;-74
2022/08/18 12:53:55;;;;;;;4.78;4.28;;;37.90;53.00;;;;;;4923716;29;20040;-74
2022/08/18 12:56:30;;;;;;;7.15;4.13;;;38.30;53.40;;;;;;4924056;29;20278;-76
2022/08/18 12:58:59;;;;;;;7.40;4.85;;;39.20;52.40;;;;;;4923563;29;20024;-75
2022/08/18 13:01:25;;;;;;;5.75;4.82;;;38.50;52.40;;;;;;4925649;29;20040;-73
2022/08/18 13:03:54;;;;;;;6.05;4.93;;;37.70;53.50;;;;;;4946225;29;20043;-74
2022/08/18 13:06:21;;;;;;;5.60;5.10;;;38.10;53.20;;;;;;4946896;29;20098;-74
2022/08/18 13:08:49;;;;;;;5.22;4.35;;;38.00;52.90;;;;;;4945939;29;20395;-74
2022/08/18 13:11:15;;;;;;;;;;;38.70;52.50;;;;;;4947185;29;20027;-74
2022/08/18 13:13:41;;;;;;;6.65;4.85;;;38.50;52.20;;;;;;4946056;29;19914;-74
2022/08/18 13:16:07;;;;;;;5.50;4.82;;;39.00;51.70;;;;;;4946634;29;20027;-75
2022/08/18 13:18:34;;;;;;;5.47;4.30;;;38.80;52.00;;;;;;4929436;29;20076;-74
2022/08/18 13:21:02;;;;;;;6.60;4.90;;;39.30;51.10;;;;;;4945616;29;20163;-75
2022/08/18 13:23:29;;;;;;;;;;;39.60;50.90;;;;;;4930368;29;20048;-75
2022/08/18 13:25:56;;;;;;;5.20;4.53;;;40.40;50.80;;;;;;4943217;29;20105;-76
2022/08/18 13:28:22;;;;;;;8.07;5.85;;;40.30;50.00;;;;;;4945923;29;20099;-76
2022/08/18 13:30:49;;;;;;;6.95;4.68;;;39.90;50.40;;;;;;4945752;29;20094;-75
2022/08/18 13:33:17;;;;;;;5.85;4.68;;;40.00;50.80;;;;;;4955428;29;20102;-75
2022/08/18 13:35:43;;;;;;;;;;;39.20;50.50;;;;;;4946376;29;20015;-76
2022/08/18 13:38:10;;;;;;;6.07;5.10;;;38.50;51.90;;;;;;4946011;29;20151;-75
2022/08/18 13:40:37;;;;;;;7.50;4.63;;;38.10;52.20;;;;;;4946906;29;20120;-74
2022/08/18 13:43:02;;;;;;;5.80;4.65;;;38.10;52.60;;;;;;4946444;29;20341;-75
2022/08/18 13:45:31;;;;;;;5.40;4.18;;;37.70;52.60;;;;;;4947457;29;20031;-75
2022/08/18 13:47:58;;;;;;;4.93;4.10;;;36.90;52.90;;;;;;4930002;29;20067;-78
2022/08/18 13:50:27;;;;;;;6.63;4.05;;;36.70;53.60;;;;;;4946830;29;20030;-81
2022/08/18 13:52:53;;;;;;;4.55;3.85;;;36.80;53.10;;;;;;4929362;29;20090;-75
2022/08/18 13:55:20;;;;;;;5.22;3.97;;;36.80;53.10;;;;;;4944361;29;20333;-76
2022/08/18 13:57:49;;;;;;;4.97;3.80;;;37.90;52.00;;;;;;4927501;29;20035;-76
2022/08/18 14:00:20;;;;;;;7.43;3.75;;;38.80;51.10;;;;;;4927608;29;20048;-75
2022/08/18 14:02:52;;;;;;;6.18;3.72;;;39.60;50.00;;;;;;4926791;29;20060;-78
2022/08/18 14:05:19;;;;;;;5.25;3.70;;;40.10;49.30;;;;;;4927004;29;20036;-78
2022/08/18 14:07:45;;;;;;;4.55;3.50;;;40.40;48.90;;;;;;4926224;29;20027;-77
2022/08/18 14:10:12;;;;;;;3.90;3.50;;;40.50;48.50;;;;;;4927868;29;20032;-76
2022/08/18 14:12:40;;;;;;;5.05;3.33;;;41.10;48.50;;;;;;4926838;29;20091;-76
2022/08/18 14:15:08;;;;;;;5.00;3.60;;;41.90;47.90;;;;;;4927247;29;20032;-76
2022/08/18 14:17:34;;;;;;;3.80;3.45;;;41.70;47.40;;;;;;4927733;29;20104;-77
2022/08/18 14:28:16;;;;;;;6.03;3.50;;;40.20;49.30;;;;;;4927533;29;20036;-77
2022/08/18 14:30:42;;;;;;;4.57;3.50;;;40.40;48.50;;;;;;4927605;29;20027;-77
2022/08/18 14:33:09;;;;;;;3.90;3.33;;;39.80;49.20;;;;;;4937549;29;20031;-76
2022/08/18 14:35:35;;;;;;;6.88;3.53;;;39.10;49.80;;;;;;4929582;29;20034;-77
2022/08/18 14:38:02;;;;;;;4.85;3.38;;;38.60;50.40;;;;;;4926516;29;20097;-76
2022/08/18 14:40:30;;;;;;;5.13;3.93;;;37.60;52.10;;;;;;4925773;29;20103;-76
2022/08/18 14:42:56;;;;;;;5.13;3.70;;;36.90;52.60;;;;;;4926125;29;20095;-76
2022/08/18 14:45:27;;;;;;;6.68;3.85;;;37.10;52.70;;;;;;4925750;29;20234;-76
2022/08/18 14:47:52;;;;;;;3.92;3.45;;;38.10;51.40;;;;;;4926408;29;20103;-75
2022/08/18 14:50:20;;;;;;;5.32;3.88;;;38.20;51.20;;;;;;4926956;29;20136;-75
2022/08/18 14:52:47;;;;;;;4.70;4.03;;;37.30;51.50;;;;;;4926455;29;20024;-76
2022/08/18 14:55:13;;;;;;;4.87;3.63;;;36.40;52.60;;;;;;4927115;29;20095;-75
2022/08/18 14:57:39;;;;;;;4.32;3.70;;;35.70;53.40;;;;;;4926878;29;20032;-76
2022/08/18 15:00:17;;;;;;;5.00;4.20;;;35.20;54.00;;;;;;4926269;29;20068;-76
2022/08/18 15:02:44;;;;;;;;;;;34.80;54.60;;;;;;4927076;29;20056;-76
2022/08/18 15:05:11;;;;;;;6.07;3.95;;;36.10;53.80;;;;;;4926650;29;20097;-76
2022/08/18 15:07:38;;;;;;;6.35;3.53;;;37.00;52.20;;;;;;4925936;29;20095;-77
2022/08/18 15:10:05;;;;;;;4.22;3.60;;;36.60;52.30;;;;;;4928816;29;20365;-76
2022/08/18 15:12:31;;;;;;;4.90;4.35;;;36.90;52.10;;;;;;4926397;29;20040;-75
2022/08/18 15:14:58;;;;;;;6.57;4.18;;;36.60;51.60;;;;;;4926383;29;20116;-75
2022/08/18 15:17:26;;;;;;;5.20;3.70;;;36.10;52.20;;;;;;4926629;29;20031;-76
2022/08/18 15:19:52;;;;;;;7.20;3.95;;;35.90;53.00;;;;;;4925955;29;20432;-76
2022/08/18 15:27:50;;;;;;;5.00;4.07;;;33.90;55.40;;;;;;4925732;29;20096;-74
2022/08/18 15:30:17;;;;;;;5.78;4.32;;;33.30;56.80;;;;;;4926465;29;20330;-75
2022/08/18 15:32:44;;;;;;;6.50;4.30;;;32.90;57.40;;;;;;4947990;29;20032;-75
2022/08/18 15:35:14;;;;;;;5.28;4.40;;;32.50;58.10;;;;;;4963735;29;20039;-75
2022/08/18 15:37:40;;;;;;;5.85;4.25;;;32.20;58.60;;;;;;4964070;29;20031;-74
2022/08/18 15:40:19;;;;;;;6.30;4.28;;;31.90;59.20;;;;;;4963427;29;20031;-75
2022/08/18 15:42:51;;;;;;;5.13;4.45;;;31.80;59.40;;;;;;4963990;29;20035;-75
2022/08/18 15:45:20;;;;;;;6.60;4.25;;;31.60;59.50;;;;;;4963955;29;20061;-76
2022/08/18 15:47:46;;;;;;;6.15;4.78;;;31.40;59.80;;;;;;4956537;29;20043;-75
2022/08/18 15:50:13;;;;;;;7.10;5.00;;;31.30;60.10;;;;;;4926295;29;20060;-75
2022/08/18 15:52:54;;;;;;;7.45;4.90;;;31.20;60.40;;;;;;4925887;29;20024;-74
2022/08/18 15:55:22;;;;;;;5.85;4.60;;;30.90;61.00;;;;;;4926281;29;20080;-75
2022/08/18 15:57:48;;;;;;;9.27;5.30;;;30.90;61.40;;;;;;4926877;29;20048;-75
2022/08/18 16:00:16;;;;;;;7.00;4.82;;;31.10;61.00;;;;;;4926325;29;20098;-75
2022/08/18 16:02:47;;;;;;;;;;;31.50;60.40;;;;;;4926132;29;20132;-75
2022/08/18 16:05:13;;;;;;;5.30;4.45;;;31.80;59.40;;;;;;4925576;29;19914;-74
2022/08/18 16:07:42;;;;;;;6.10;4.93;;;32.40;58.90;;;;;;4925628;29;20034;-74
2022/08/18 16:10:09;;;;;;;5.00;4.28;;;32.70;58.40;;;;;;4924996;29;20341;-75
2022/08/18 16:12:35;;;;;;;6.55;4.53;;;32.90;57.90;;;;;;4925629;29;20028;-74
2022/08/18 16:15:02;;;;;;;6.80;4.88;;;32.70;58.20;;;;;;4925283;29;20032;-75
2022/08/18 16:17:30;;;;;;;5.55;4.70;;;32.50;58.40;;;;;;4939055;29;20031;-75
2022/08/18 16:19:56;;;;;;;5.90;4.57;;;32.50;58.50;;;;;;4944023;29;20099;-75
2022/08/18 16:22:22;;;;;;;4.90;4.30;;;32.20;59.00;;;;;;4944348;29;20031;-74
2022/08/18 16:24:49;;;;;;;6.10;4.90;;;32.00;59.40;;;;;;4944571;29;20032;-75
2022/08/18 16:27:15;;;;;;;7.18;4.50;;;31.90;59.30;;;;;;4944762;29;20197;-75
2022/08/18 16:29:41;;;;;;;7.03;4.35;;;31.70;59.70;;;;;;4944740;29;20416;-75
2022/08/18 16:32:07;;;;;;;6.28;4.47;;;31.70;60.10;;;;;;4945229;29;20027;-75
2022/08/18 16:34:33;;;;;;;4.55;4.13;;;31.30;60.10;;;;;;4963639;29;20031;-75
2022/08/18 16:36:59;;;;;;;6.97;4.70;;;30.60;61.30;;;;;;4965894;28;20042;-75
2022/08/18 16:39:25;;;;;;;7.55;4.78;;;30.10;62.30;;;;;;4967360;29;20156;-74
2022/08/18 16:41:51;;;;;;;8.02;4.90;;;29.60;63.50;;;;;;4967066;29;20031;-75
2022/08/18 16:44:18;;;;;;;6.03;4.60;;;29.10;64.50;;;;;;4967438;29;20027;-76
2022/08/18 16:46:43;;;;;;;7.28;4.90;;;28.80;65.00;;;;;;4967625;29;20062;-76
2022/08/18 16:49:09;;;;;;;6.72;4.80;;;28.60;65.20;;;;;;4940313;29;20027;-74
2022/08/18 16:51:36;;;;;;;6.35;4.60;;;28.40;65.70;;;;;;4928627;29;20020;-75
2022/08/18 16:54:03;;;;;;;7.50;4.60;;;28.10;66.20;;;;;;4928685;29;20058;-75
2022/08/18 16:56:30;;;;;;;6.50;4.72;;;27.90;66.90;;;;;;4927897;29;20203;-75
2022/08/18 17:04:32;;;;;;;6.10;5.10;;;27.50;70.20;;;;;;4929076;29;20037;-76
2022/08/18 17:06:59;;;;;;;5.97;5.22;;;27.40;71.30;;;;;;4928483;29;20040;-77
2022/08/18 17:09:25;;;;;;;7.00;5.60;;;27.20;72.50;;;;;;4928765;29;20031;-74
2022/08/18 17:11:52;;;;;;;6.05;5.45;;;27.00;73.60;;;;;;4928848;29;20365;-75
2022/08/18 17:14:23;;;;;;;6.38;5.22;;;26.90;74.00;;;;;;4928545;29;20064;-74
2022/08/18 17:16:53;;;;;;;8.23;5.35;;;26.90;74.40;;;;;;4928713;29;20222;-77
2022/08/18 17:19:22;;;;;;;6.75;6.05;;;26.90;74.80;;;;;;4928294;29;20111;-75
2022/08/18 17:21:48;;;;;;;;;;;26.70;75.10;;;;;;4929947;29;20028;-73
2022/08/18 17:24:14;;;;;;;7.70;5.95;;;26.60;75.50;;;;;;4927214;29;19910;-76
2022/08/18 17:27:13;;;;;;;8.15;5.75;;;26.50;75.80;;;;;;4928543;29;20038;-76
2022/08/18 17:29:47;;;;;;;6.78;5.47;;;26.40;76.30;;;;;;4928383;29;20024;-74
2022/08/18 17:32:46;;;;;;;7.47;5.57;;;26.30;76.70;;;;;;4940658;29;20045;-74
2022/08/18 17:35:29;;;;;;;7.80;5.60;;;26.20;77.20;;;;;;4949003;29;20110;-74
2022/08/18 17:38:11;;;;;;;6.90;5.72;;;26.10;77.30;;;;;;4949006;29;20031;-74
2022/08/18 17:40:45;;;;;;;6.97;5.68;;;26.10;77.70;;;;;;4966258;29;20034;-75
2022/08/18 17:43:22;;;;;;;6.85;5.78;;;25.90;78.00;;;;;;4948698;29;20031;-71
2022/08/18 17:45:54;;;;;;;6.93;6.23;;;25.80;78.60;;;;;;4966129;29;20085;-74
2022/08/18 17:48:31;;;;;;;6.47;5.75;;;25.70;78.90;;;;;;4965699;28;20094;-74
2022/08/18 17:54:00;;;;;;;8.90;6.45;;;25.50;79.80;;;;;;4965908;29;20340;-75
2022/08/18 17:56:43;;;;;;;9.23;6.22;;;25.40;80.10;;;;;;4966770;29;20031;-74
2022/08/18 17:59:28;;;;;;;7.03;6.32;;;25.30;80.20;;;;;;4966006;29;20027;-73
2022/08/18 18:02:12;;;;;;;8.93;6.65;;;25.30;80.60;;;;;;4965829;28;20051;-76
2022/08/18 18:04:42;;;;;;;8.55;7.00;;;25.30;80.80;;;;;;4950315;29;20234;-74
2022/08/18 18:07:31;;;;;;;8.45;7.10;;;25.20;81.00;;;;;;4926062;29;20032;-74
2022/08/18 18:10:01;;;;;;;8.48;7.43;;;25.10;81.20;;;;;;4927126;29;20024;-73
2022/08/18 18:12:29;;;;;;;8.85;7.95;;;25.20;81.50;;;;;;4927915;29;20152;-74
2022/08/18 18:14:57;;;;;;;8.93;7.47;;;25.10;81.70;;;;;;4927752;29;20094;-74
2022/08/18 18:17:27;;;;;;;12.32;7.68;;;25.00;81.80;;;;;;4927435;29;20040;-75
2022/08/18 18:20:14;;;;;;;11.70;7.90;;;24.90;81.80;;;;;;4927766;29;20028;-74
2022/08/18 18:22:42;;;;;;;9.25;7.88;;;24.90;82.20;;;;;;4927480;29;20031;-75
2022/08/18 18:25:13;;;;;;;9.25;7.68;;;24.90;82.30;;;;;;4927050;29;20040;-74
2022/08/18 18:27:42;;;;;;;11.27;8.75;;;24.80;82.60;;;;;;4929080;29;20042;-74
2022/08/18 18:30:21;;;;;;;9.45;8.43;;;24.80;82.50;;;;;;4945995;29;20048;-74
2022/08/18 18:32:49;;;;;;;12.70;9.00;;;24.80;82.70;;;;;;4959327;29;20317;-74
2022/08/18 18:35:19;;;;;;;9.88;8.90;;;24.70;82.70;;;;;;4964785;29;20094;-75
2022/08/18 18:37:47;;;;;;;12.18;9.68;;;24.70;82.60;;;;;;4950480;29;20035;-74
2022/08/18 18:40:24;;;;;;;10.68;9.05;;;24.70;82.70;;;;;;4945813;29;20036;-76
2022/08/18 18:42:51;;;;;;;10.27;8.93;;;24.70;82.50;;;;;;4934472;29;20198;-74
2022/08/18 18:45:25;;;;;;;10.40;9.30;;;24.70;82.50;;;;;;4933111;29;20055;-74
2022/08/18 18:48:18;;;;;;;10.80;9.55;;;24.70;82.60;;;;;;4945641;29;20039;-76
2022/08/18 18:50:53;;;;;;;11.48;9.50;;;24.70;82.60;;;;;;4944994;29;20306;-75